Time;durP1;ratioP1;P1;durP2;ratioP2;P2;SDS_P1;SDS_P2;PMS_P1;PMS_P2;Temp;Humidity;BMP_temperature;BMP_pressure;BME280_temperature;BME280_humidity;BME280_pressure;Samples;Min_cycle;Max_cycle;Signal;HPM_P1;HPM_P2
2022/10/15 00:01:27;;;;;;;;;;;;;;;20.39;46.89;95394.16;6117791;19;1521;-81
2022/10/15 00:03:30;;;;;;;;;;;;;;;20.37;46.83;95396.19;6108400;19;1639;-82
2022/10/15 00:05:34;;;;;;;;;;;;;;;20.36;47.32;95397.19;5960029;19;2892118;-82
2022/10/15 00:07:37;;;;;;;;;;;;;;;20.34;46.94;95386.75;6121789;19;1358;-81
2022/10/15 00:09:42;;;;;;;;;;;;;;;20.34;47.20;95384.06;6118656;19;1623;-81
2022/10/15 00:11:45;;;;;;;;;;;;;;;20.34;46.85;95394.75;6119183;19;1482;-81
2022/10/15 00:13:49;;;;;;;;;;;;;;;20.36;46.77;95391.03;6119294;19;1438;-81
2022/10/15 00:15:55;;;;;;;;;;;;;;;20.34;46.92;95394.75;6099626;19;1516;-81
2022/10/15 00:17:59;;;;;;;;;;;;;;;20.35;47.13;95382.22;6118564;19;1434;-80
2022/10/15 00:20:03;;;;;;;;;;;;;;;20.35;46.90;95390.22;6117498;19;1029;-80
2022/10/15 00:22:06;;;;;;;;;;;;;;;20.33;47.03;95384.25;6118422;19;1487;-81
2022/10/15 00:24:10;;;;;;;;;;;;;;;20.33;46.63;95393.06;6121352;19;1363;-80
2022/10/15 00:26:16;;;;;;;;;;;;;;;20.32;47.04;95380.78;6113918;19;1826;-83
2022/10/15 00:28:19;;;;;;;;;;;;;;;20.33;46.77;95384.25;6107249;19;1577;-80
2022/10/15 00:30:22;;;;;;;;;;;;;;;20.33;46.91;95377.06;6117223;19;1418;-82
2022/10/15 00:32:28;;;;;;;;;;;;;;;20.32;47.00;95380.78;6117183;19;1472;-82
2022/10/15 00:34:32;;;;;;;;;;;;;;;20.32;47.16;95371.94;6118200;19;1524;-82
2022/10/15 00:36:36;;;;;;;;;;;;;;;20.32;46.94;95375.44;6121805;19;1406;-82
2022/10/15 00:38:39;;;;;;;;;;;;;;;20.32;47.06;95364.75;6101328;19;1532;-81
2022/10/15 00:40:43;;;;;;;;;;;;;;;20.32;46.89;95364.75;6117516;19;1450;-81
2022/10/15 00:42:46;;;;;;;;;;;;;;;20.30;46.99;95361.47;6119099;19;1261;-81
2022/10/15 00:44:51;;;;;;;;;;;;;;;20.31;47.05;95364.94;6117900;19;1122;-81
2022/10/15 00:46:56;;;;;;;;;;;;;;;20.30;47.08;95360.63;6116314;19;1834;-81
2022/10/15 00:49:04;;;;;;;;;;;;;;;20.29;46.95;95357.16;6118800;19;1407;-80
2022/10/15 00:51:08;;;;;;;;;;;;;;;20.30;47.11;95355.31;6104173;19;1458;-80
2022/10/15 00:53:11;;;;;;;;;;;;;;;20.30;46.85;95355.31;6121895;19;1481;-80
2022/10/15 00:55:17;;;;;;;;;;;;;;;20.29;47.14;95349.16;6123716;19;1494;-81
2022/10/15 00:57:21;;;;;;;;;;;;;;;20.30;47.25;95356.13;6125878;19;1520;-81
2022/10/15 00:59:26;;;;;;;;;;;;;;;20.31;47.40;95349.75;6126344;19;1507;-81
2022/10/15 01:01:29;;;;;;;;;;;;;;;20.30;47.49;95345.44;6110313;19;1392;-81
2022/10/15 01:03:34;;;;;;;;;;;;;;;20.30;47.53;95349.97;6121820;19;1425;-81
2022/10/15 01:05:41;;;;;;;;;;;;;;;20.30;47.54;95350.78;6123157;19;1883;-81
2022/10/15 01:07:44;;;;;;;;;;;;;;;20.30;47.83;95345.44;6123269;19;1446;-81
2022/10/15 01:09:48;;;;;;;;;;;;;;;20.30;47.66;95350.78;6125345;19;1375;-81
2022/10/15 01:11:52;;;;;;;;;;;;;;;20.30;48.01;95348.13;6125109;19;1424;-81
2022/10/15 01:14:01;;;;;;;;;;;;;;;20.30;48.07;95348.13;6104149;19;1475;-83
2022/10/15 01:16:09;;;;;;;;;;;;;;;20.32;48.30;95348.75;6124613;19;1440;-82
2022/10/15 01:18:16;;;;;;;;;;;;;;;20.31;48.30;95347.09;6122204;19;1531;-81
2022/10/15 01:20:36;;;;;;;;;;;;;;;20.32;47.95;95353.25;6124828;19;1425;-81
2022/10/15 01:22:51;;;;;;;;;;;;;;;20.31;48.06;95352.41;6123624;19;1438;-81
2022/10/15 01:25:04;;;;;;;;;;;;;;;20.31;48.44;95349.75;6103794;19;1437;-81
2022/10/15 01:27:23;;;;;;;;;;;;;;;20.32;48.18;95350.59;6120959;19;1900;-81
2022/10/15 01:29:35;;;;;;;;;;;;;;;20.32;48.31;95347.94;6125719;19;1318;-80
2022/10/15 01:31:45;;;;;;;;;;;;;;;20.31;48.27;95346.25;6121939;19;1096;-81
2022/10/15 01:33:54;;;;;;;;;;;;;;;20.31;48.37;95351.59;6122501;19;1536;-81
2022/10/15 01:36:01;;;;;;;;;;;;;;;20.29;48.34;95351.81;6104881;19;1544;-81
2022/10/15 01:38:09;;;;;;;;;;;;;;;20.29;48.35;95348.34;6121052;19;1511;-81
2022/10/15 01:40:15;;;;;;;;;;;;;;;20.30;48.40;95347.31;6119792;19;1668;-81
2022/10/15 01:42:19;;;;;;;;;;;;;;;20.31;48.12;95349.75;6122194;19;1167;-81
2022/10/15 01:44:26;;;;;;;;;;;;;;;20.29;48.08;95351.00;6125109;19;1429;-81
2022/10/15 01:46:31;;;;;;;;;;;;;;;20.28;48.15;95352.81;6112965;19;1860;-81
2022/10/15 01:48:39;;;;;;;;;;;;;;;20.29;48.15;95356.34;6114893;19;1433;-81
2022/10/15 01:50:45;;;;;;;;;;;;;;;20.28;48.07;95350.16;6122669;19;1445;-82
2022/10/15 01:52:50;;;;;;;;;;;;;;;20.30;48.37;95352.63;6123032;19;1504;-81
2022/10/15 01:54:55;;;;;;;;;;;;;;;20.33;48.50;95350.38;6121689;19;1433;-81
2022/10/15 01:57:00;;;;;;;;;;;;;;;20.40;48.26;95355.75;6125459;19;1537;-82
2022/10/15 01:59:04;;;;;;;;;;;;;;;20.46;48.17;95354.13;6105170;19;1437;-84
2022/10/15 02:01:08;;;;;;;;;;;;;;;20.50;48.30;95358.03;6120814;19;1549;-84
2022/10/15 02:03:11;;;;;;;;;;;;;;;20.46;48.35;95348.78;6123224;19;1464;-85
2022/10/15 02:05:19;;;;;;;;;;;;;;;20.40;48.79;95355.75;6125829;19;1505;-85
2022/10/15 02:07:27;;;;;;;;;;;;;;;20.37;48.77;95352.66;6125667;19;1814;-86
2022/10/15 02:09:37;;;;;;;;;;;;;;;20.34;48.78;95344.03;6115889;19;1489;-85
2022/10/15 02:11:47;;;;;;;;;;;;;;;20.35;48.47;95347.53;6120465;19;1389;-83
2022/10/15 02:13:53;;;;;;;;;;;;;;;20.34;48.83;95349.38;6125274;19;1418;-84
2022/10/15 02:16:04;;;;;;;;;;;;;;;20.33;48.49;95346.88;6124235;19;1126;-84
2022/10/15 02:18:11;;;;;;;;;;;;;;;20.33;48.72;95353.03;6123080;19;1572;-84
2022/10/15 02:20:21;;;;;;;;;;;;;;;20.32;48.46;95348.75;6121753;19;1189;-84
2022/10/15 02:22:26;;;;;;;;;;;;;;;20.31;48.71;95348.94;6112710;19;1430;-82
2022/10/15 02:24:31;;;;;;;;;;;;;;;20.30;48.83;95344.63;6122211;19;1378;-84
2022/10/15 02:26:35;;;;;;;;;;;;;;;20.30;48.42;95348.13;6120966;19;1862;-84
2022/10/15 02:28:40;;;;;;;;;;;;;;;20.30;48.53;95350.78;6120897;19;1548;-84
2022/10/15 02:30:45;;;;;;;;;;;;;;;20.30;48.56;95356.13;6120208;19;1529;-83
2022/10/15 02:32:51;;;;;;;;;;;;;;;20.29;48.73;95357.16;6104985;19;1528;-84
2022/10/15 02:34:55;;;;;;;;;;;;;;;20.29;48.72;95354.50;6124468;19;1548;-84
2022/10/15 02:37:03;;;;;;;;;;;;;;;20.29;48.87;95359.00;6123456;19;1351;-82
2022/10/15 02:39:08;;;;;;;;;;;;;;;20.28;48.81;95357.34;6122691;19;1544;-84
2022/10/15 02:41:12;;;;;;;;;;;;;;;20.25;48.78;95353.22;6122042;19;1399;-84
2022/10/15 02:43:17;;;;;;;;;;;;;;;20.28;48.37;95363.50;6122961;19;1532;-84
2022/10/15 02:45:20;;;;;;;;;;;;;;;20.39;48.74;95358.63;6107967;19;1517;-87
2022/10/15 02:47:24;;;;;;;;;;;;;;;20.27;48.87;95345.84;6123634;19;1853;-87
2022/10/15 02:49:27;;;;;;;;;;;;;;;20.41;48.47;95353.94;6123665;19;1515;-84
2022/10/15 02:51:33;;;;;;;;;;;;;;;20.45;48.67;95347.16;6122806;19;1434;-82
2022/10/15 02:53:39;;;;;;;;;;;;;;;20.46;48.57;95346.97;6120843;19;1453;-83
2022/10/15 02:55:42;;;;;;;;;;;;;;;20.49;48.73;95348.41;6101921;19;1475;-84
2022/10/15 02:57:46;;;;;;;;;;;;;;;20.47;48.68;95347.78;6121723;19;965;-85
2022/10/15 02:59:49;;;;;;;;;;;;;;;20.45;48.96;95349.81;6122987;19;1512;-82
2022/10/15 03:01:53;;;;;;;;;;;;;;;20.52;48.36;95358.69;6122461;19;1433;-82
2022/10/15 03:03:58;;;;;;;;;;;;;;;20.52;48.68;95356.81;6122237;19;1437;-80
2022/10/15 03:06:02;;;;;;;;;;;;;;;20.51;48.52;95357.81;6119333;19;1514;-80
2022/10/15 03:08:05;;;;;;;;;;;;;;;19.75;45.63;95347.31;6100992;19;1845;-82
2022/10/15 03:10:11;;;;;;;;;;;;;;;19.65;45.89;95350.34;6121880;19;1437;-83
2022/10/15 03:12:15;;;;;;;;;;;;;;;19.72;45.83;95357.53;6116846;19;1569;-80
2022/10/15 03:14:18;;;;;;;;;;;;;;;19.75;45.42;95354.47;6120188;19;1504;-78
2022/10/15 03:16:22;;;;;;;;;;;;;;;19.75;45.04;95357.97;6121230;19;1231;-79
2022/10/15 03:18:26;;;;;;;;;;;;;;;19.63;44.33;95348.88;6107918;19;1519;-79
2022/10/15 03:20:30;;;;;;;;;;;;;;;19.63;44.00;95348.88;6110923;19;1458;-81
2022/10/15 03:22:33;;;;;;;;;;;;;;;19.60;43.93;95355.41;6121008;19;1471;-82
2022/10/15 03:24:36;;;;;;;;;;;;;;;19.49;43.25;95355.13;6119393;19;1591;-80
2022/10/15 03:26:42;;;;;;;;;;;;;;;19.42;43.67;95347.91;6119854;19;1845;-80
2022/10/15 03:28:46;;;;;;;;;;;;;;;19.32;42.97;95346.63;6119613;19;1446;-79
2022/10/15 03:30:49;;;;;;;;;;;;;;;19.27;43.16;95349.88;6103297;19;1679;-79
2022/10/15 03:32:53;;;;;;;;;;;;;;;19.18;43.15;95351.06;6119056;19;1502;-78
2022/10/15 03:34:56;;;;;;;;;;;;;;;19.04;42.77;95359.97;6121763;19;1535;-80
2022/10/15 03:36:59;;;;;;;;;;;;;;;18.99;43.17;95353.38;6121050;19;1497;-79
2022/10/15 03:39:03;;;;;;;;;;;;;;;18.87;43.15;95354.91;6119697;19;1624;-78
2022/10/15 03:41:06;;;;;;;;;;;;;;;18.79;42.99;95351.56;6111743;19;1545;-78
2022/10/15 03:43:12;;;;;;;;;;;;;;;18.73;42.90;95350.50;6110912;19;1468;-77
2022/10/15 03:45:16;;;;;;;;;;;;;;;18.71;43.21;95357.84;6120143;19;1512;-78
2022/10/15 03:47:19;;;;;;;;;;;;;;;18.74;43.02;95357.47;6120729;19;1847;-79
2022/10/15 03:49:23;;;;;;;;;;;;;;;18.74;42.95;95352.13;6121689;19;1513;-78
2022/10/15 03:51:26;;;;;;;;;;;;;;;18.81;43.19;95355.69;6122583;19;1409;-85
2022/10/15 03:53:30;;;;;;;;;;;;;;;18.66;43.25;95361.06;6101343;19;1477;-79
2022/10/15 03:55:33;;;;;;;;;;;;;;;18.79;43.22;95357.72;6121651;19;1441;-81
2022/10/15 03:57:37;;;;;;;;;;;;;;;18.98;43.08;95354.41;6116859;19;1524;-80
2022/10/15 03:59:43;;;;;;;;;;;;;;;18.86;43.37;95361.25;6119833;19;1424;-79
2022/10/15 04:01:46;;;;;;;;;;;;;;;18.93;43.33;95356.00;6120613;19;1489;-79
2022/10/15 04:03:53;;;;;;;;;;;;;;;18.76;42.99;95358.09;6111772;19;1508;-81
2022/10/15 04:05:56;;;;;;;;;;;;;;;18.73;43.11;95355.84;6108166;19;1505;-80
2022/10/15 04:08:00;;;;;;;;;;;;;;;18.67;43.03;95364.59;6116772;19;1846;-79
2022/10/15 04:10:03;;;;;;;;;;;;;;;18.60;43.47;95366.31;6116853;19;1539;-76
2022/10/15 04:12:07;;;;;;;;;;;;;;;18.54;43.46;95371.38;6119529;19;1404;-76
2022/10/15 04:14:10;;;;;;;;;;;;;;;18.54;43.25;95362.56;6117000;19;1516;-77
2022/10/15 04:16:16;;;;;;;;;;;;;;;18.52;43.31;95368.09;6100372;19;1541;-77
2022/10/15 04:18:20;;;;;;;;;;;;;;;18.46;43.43;95358.19;6116686;19;1018;-78
2022/10/15 04:20:24;;;;;;;;;;;;;;;18.40;43.47;95358.94;6117482;19;1482;-76
2022/10/15 04:22:27;;;;;;;;;;;;;;;18.35;43.39;95358.69;6117293;19;1498;-78
2022/10/15 04:24:31;;;;;;;;;;;;;;;18.33;43.26;95358.06;6125351;19;1596;-77
2022/10/15 04:26:35;;;;;;;;;;;;;;;18.32;43.17;95359.06;6121479;19;1477;-77
2022/10/15 04:28:38;;;;;;;;;;;;;;;18.24;43.27;95360.03;6103146;19;1857;-77
2022/10/15 04:30:42;;;;;;;;;;;;;;;18.22;43.21;95367.38;6123316;19;988;-80
2022/10/15 04:32:48;;;;;;;;;;;;;;;18.19;43.17;95370.41;6121120;19;1416;-77
2022/10/15 04:34:51;;;;;;;;;;;;;;;18.16;43.50;95367.31;6125659;19;1525;-77
2022/10/15 04:36:55;;;;;;;;;;;;;;;18.12;43.12;95364.19;6124061;19;1495;-79
2022/10/15 04:38:58;;;;;;;;;;;;;;;18.11;43.60;95373.19;6107512;19;1389;-77
2022/10/15 04:41:03;;;;;;;;;;;;;;;18.03;43.77;95379.41;6124537;19;1531;-77
2022/10/15 04:43:06;;;;;;;;;;;;;;;17.97;43.51;95374.84;6125480;19;1508;-76
2022/10/15 04:45:15;;;;;;;;;;;;;;;17.94;43.70;95369.91;6123125;19;1480;-83
2022/10/15 04:47:18;;;;;;;;;;;;;;;17.94;43.81;95380.53;6121713;19;1850;-83
2022/10/15 04:49:24;;;;;;;;;;;;;;;17.95;44.03;95376.88;6124796;19;1045;-80
2022/10/15 04:51:28;;;;;;;;;;;;;;;17.96;43.97;95381.19;6107391;19;1153;-78
2022/10/15 04:53:32;;;;;;;;;;;;;;;17.93;44.18;95373.59;6122691;19;1500;-78
2022/10/15 04:55:35;;;;;;;;;;;;;;;17.92;43.79;95390.53;6121178;19;1314;-78
2022/10/15 04:57:39;;;;;;;;;;;;;;;17.88;44.25;95389.28;6122510;19;1053;-78
2022/10/15 04:59:43;;;;;;;;;;;;;;;17.83;44.42;95389.00;6121596;19;1420;-79
2022/10/15 05:01:46;;;;;;;;;;;;;;;17.81;44.12;95391.00;6101906;19;1099;-78
2022/10/15 05:03:50;;;;;;;;;;;;;;;17.77;44.21;95390.56;6116549;19;1585;-78
2022/10/15 05:06:01;;;;;;;;;;;;;;;17.78;44.28;95391.38;6117353;19;1148;-79
2022/10/15 05:08:05;;;;;;;;;;;;;;;17.75;44.52;95395.22;6116301;19;1818;-79
2022/10/15 05:10:09;;;;;;;;;;;;;;;17.74;44.58;95395.44;6119118;19;1104;-79
2022/10/15 05:12:12;;;;;;;;;;;;;;;17.69;44.50;95393.28;6115360;19;1537;-79
2022/10/15 05:14:16;;;;;;;;;;;;;;;17.71;44.54;95401.91;6105103;19;1086;-79
2022/10/15 05:16:21;;;;;;;;;;;;;;;17.68;44.59;95401.44;6122061;19;1119;-78
2022/10/15 05:18:24;;;;;;;;;;;;;;;17.72;44.73;95408.03;6121872;19;1225;-79
2022/10/15 05:20:27;;;;;;;;;;;;;;;17.74;44.58;95404.22;6123050;19;1056;-79
2022/10/15 05:22:33;;;;;;;;;;;;;;;17.74;44.28;95414.03;6121623;19;1211;-80
2022/10/15 05:24:37;;;;;;;;;;;;;;;17.76;44.51;95406.72;6104364;19;1416;-80
2022/10/15 05:26:40;;;;;;;;;;;;;;;17.73;44.65;95412.34;6120201;19;1540;-81
2022/10/15 05:28:43;;;;;;;;;;;;;;;17.69;44.50;95408.41;6119976;19;1831;-82
2022/10/15 05:30:47;;;;;;;;;;;;;;;17.99;44.07;95410.06;6123522;19;1029;-80
2022/10/15 05:32:53;;;;;;;;;;;;;;;18.43;43.56;95406.47;6120961;19;1563;-79
2022/10/15 05:34:56;;;;;;;;;;;;;;;18.63;43.12;95413.84;6116877;19;1455;-81
2022/10/15 05:37:03;;;;;;;;;;;;;;;18.73;42.85;95407.22;6109460;19;1015;-81
2022/10/15 05:39:11;;;;;;;;;;;;;;;18.81;43.28;95414.28;6122158;19;1120;-81
2022/10/15 05:41:14;;;;;;;;;;;;;;;18.85;43.17;95414.69;6122419;19;999;-81
2022/10/15 05:43:18;;;;;;;;;;;;;;;18.90;42.84;95414.97;6120443;19;1538;-82
2022/10/15 05:45:23;;;;;;;;;;;;;;;18.94;43.22;95421.53;6120773;19;1493;-81
2022/10/15 05:47:27;;;;;;;;;;;;;;;19.00;43.08;95426.91;6101807;19;1845;-81
2022/10/15 05:49:30;;;;;;;;;;;;;;;19.05;42.72;95420.19;6119953;19;1673;-81
2022/10/15 05:51:34;;;;;;;;;;;;;;;19.08;42.83;95425.16;6119358;19;1551;-81
2022/10/15 05:53:39;;;;;;;;;;;;;;;19.11;42.74;95436.22;6121753;19;1018;-81
2022/10/15 05:55:45;;;;;;;;;;;;;;;19.13;43.04;95428.88;6120083;19;1484;-80
2022/10/15 05:57:48;;;;;;;;;;;;;;;19.15;42.81;95436.66;6119040;19;982;-82
2022/10/15 05:59:52;;;;;;;;;;;;;;;19.17;42.88;95435.44;6109417;19;1408;-80
2022/10/15 06:01:55;;;;;;;;;;;;;;;19.19;42.68;95433.44;6119905;19;1359;-81
2022/10/15 06:03:59;;;;;;;;;;;;;;;19.21;42.96;95435.91;6121290;19;1121;-81
2022/10/15 06:06:02;;;;;;;;;;;;;;;19.23;42.69;95433.88;6119359;19;1124;-81
2022/10/15 06:08:06;;;;;;;;;;;;;;;19.25;42.62;95442.50;6119548;19;1845;-80
2022/10/15 06:10:10;;;;;;;;;;;;;;;19.25;42.93;95434.50;6102938;19;1395;-80
2022/10/15 06:12:17;;;;;;;;;;;;;;;19.27;42.95;95429.00;6119272;19;1438;-81
2022/10/15 06:14:21;;;;;;;;;;;;;;;19.30;42.93;95439.25;6120360;19;1510;-81
2022/10/15 06:16:24;;;;;;;;;;;;;;;19.31;42.86;95441.72;6119098;19;1520;-80
2022/10/15 06:18:28;;;;;;;;;;;;;;;19.32;42.90;95439.88;6119064;19;1421;-80
2022/10/15 06:20:32;;;;;;;;;;;;;;;19.37;42.81;95440.94;6109601;19;1441;-79
2022/10/15 06:22:36;;;;;;;;;;;;;;;19.42;43.01;95446.53;6110673;19;1092;-79
2022/10/15 06:24:39;;;;;;;;;;;;;;;19.45;43.53;95454.13;6120730;19;1034;-79
2022/10/15 06:26:42;;;;;;;;;;;;;;;19.48;43.18;95446.78;6121290;19;1046;-81
2022/10/15 06:28:48;;;;;;;;;;;;;;;19.51;43.32;95451.72;6119191;19;1849;-81
2022/10/15 06:30:52;;;;;;;;;;;;;;;19.48;43.57;95452.91;6118222;19;1447;-81
2022/10/15 06:32:55;;;;;;;;;;;;;;;19.48;43.77;95452.91;6102397;19;1171;-81
2022/10/15 06:34:59;;;;;;;;;;;;;;;19.52;43.44;95459.53;6121188;19;991;-82
2022/10/15 06:37:03;;;;;;;;;;;;;;;19.50;43.81;95456.22;6118504;19;1404;-81
2022/10/15 06:39:06;;;;;;;;;;;;;;;19.52;43.62;95464.00;6120172;19;1030;-81
2022/10/15 06:41:10;;;;;;;;;;;;;;;19.53;44.01;95466.53;6119909;19;1064;-81
2022/10/15 06:43:13;;;;;;;;;;;;;;;19.54;43.94;95462.81;6110999;19;1085;-81
2022/10/15 06:45:21;;;;;;;;;;;;;;;19.57;44.02;95466.94;6109485;19;1222;-81
2022/10/15 06:47:24;;;;;;;;;;;;;;;19.59;44.14;95460.41;6119837;19;1001;-81
2022/10/15 06:49:31;;;;;;;;;;;;;;;19.60;43.77;95461.22;6117748;19;1853;-80
2022/10/15 06:51:36;;;;;;;;;;;;;;;19.64;43.89;95462.50;6119114;19;1128;-81
2022/10/15 06:53:41;;;;;;;;;;;;;;;19.64;43.89;95457.19;6119889;19;1230;-79
2022/10/15 06:55:44;;;;;;;;;;;;;;;19.65;44.21;95461.47;6100298;19;1324;-82
2022/10/15 06:57:48;;;;;;;;;;;;;;;19.65;43.95;95459.63;6119604;19;1376;-82
2022/10/15 06:59:51;;;;;;;;;;;;;;;19.67;43.90;95462.94;6118391;19;1376;-81
2022/10/15 07:01:57;;;;;;;;;;;;;;;19.69;44.16;95461.91;6119339;19;1075;-81
2022/10/15 07:04:00;;;;;;;;;;;;;;;19.69;43.87;95462.75;6118582;19;1518;-82
2022/10/15 07:06:05;;;;;;;;;;;;;;;19.71;43.87;95462.53;6109272;19;1504;-82
2022/10/15 07:08:08;;;;;;;;;;;;;;;19.76;43.88;95465.44;6110854;19;1838;-82
2022/10/15 07:10:12;;;;;;;;;;;;;;;19.77;44.04;95459.09;6120771;19;843;-85
2022/10/15 07:12:15;;;;;;;;;;;;;;;19.76;43.71;95463.59;6121734;19;1170;-87
2022/10/15 07:14:19;;;;;;;;;;;;;;;19.78;43.77;95463.41;6122454;19;1041;-85
2022/10/15 07:16:22;;;;;;;;;;;;;;;19.77;43.68;95472.41;6119098;19;1447;-81
2022/10/15 07:18:28;;;;;;;;;;;;;;;19.79;43.49;95476.53;6101219;19;1065;-80
2022/10/15 07:20:32;;;;;;;;;;;;;;;19.81;43.34;95482.50;6116977;19;1449;-83
2022/10/15 07:22:36;;;;;;;;;;;;;;;19.82;43.72;95475.34;6118837;19;1458;-83
2022/10/15 07:24:39;;;;;;;;;;;;;;;19.82;44.12;95478.81;6118404;19;1498;-81
2022/10/15 07:26:43;;;;;;;;;;;;;;;19.82;43.71;95476.16;6117826;19;1475;-82
2022/10/15 07:28:46;;;;;;;;;;;;;;;19.84;43.92;95478.63;6108775;19;1853;-82
2022/10/15 07:30:50;;;;;;;;;;;;;;;19.84;43.78;95474.13;6108114;19;1369;-81
2022/10/15 07:32:53;;;;;;;;;;;;;;;19.86;44.20;95474.75;6117437;19;1459;-83
2022/10/15 07:34:59;;;;;;;;;;;;;;;19.87;43.85;95475.56;6118772;19;986;-82
2022/10/15 07:37:02;;;;;;;;;;;;;;;19.87;44.22;95473.72;6119529;19;1029;-82
2022/10/15 07:39:06;;;;;;;;;;;;;;;19.88;44.23;95482.53;6116977;19;1587;-82
2022/10/15 07:41:10;;;;;;;;;;;;;;;19.89;43.90;95476.22;6100976;19;1227;-83
2022/10/15 07:43:14;;;;;;;;;;;;;;;19.92;44.00;95474.97;6117293;19;1387;-80
2022/10/15 07:45:18;;;;;;;;;;;;;;;19.93;44.00;95477.44;6117802;19;1524;-79
2022/10/15 07:47:21;;;;;;;;;;;;;;;19.94;44.02;95478.28;6119131;19;1176;-82
2022/10/15 07:49:24;;;;;;;;;;;;;;;19.96;44.23;95481.56;6118030;19;1847;-83
2022/10/15 07:51:31;;;;;;;;;;;;;;;19.97;43.86;95483.22;6110222;19;1503;-85
2022/10/15 07:53:34;;;;;;;;;;;;;;;19.96;44.18;95477.06;6110881;19;1454;-86
2022/10/15 07:55:38;;;;;;;;;;;;;;;19.96;44.45;95474.38;6120987;19;1437;-86
2022/10/15 07:57:41;;;;;;;;;;;;;;;19.97;44.41;95484.03;6123626;19;1014;-87
2022/10/15 07:59:45;;;;;;;;;;;;;;;19.98;44.22;95480.38;6126066;19;1384;-87
2022/10/15 08:01:50;;;;;;;;;;;;;;;19.98;44.58;95479.53;6128469;19;950;-88
2022/10/15 08:03:53;;;;;;;;;;;;;;;19.98;44.13;95480.38;6110460;19;1103;-85
2022/10/15 08:05:56;;;;;;;;;;;;;;;19.98;44.44;95477.69;6126321;19;1108;-88
2022/10/15 08:08:02;;;;;;;;;;;;;;;19.99;44.33;95486.50;6125580;19;1517;-92
2022/10/15 08:10:06;;;;;;;;;;;;;;;19.99;44.54;95478.50;6128349;19;1814;-89
2022/10/15 08:12:10;;;;;;;;;;;;;;;20.00;44.40;95480.16;6127678;19;1481;-90
2022/10/15 08:14:13;;;;;;;;;;;;;;;19.99;44.31;95481.19;6117280;19;1425;-87
2022/10/15 08:16:18;;;;;;;;;;;;;;;19.99;44.57;95470.50;6115374;19;1391;-82
2022/10/15 08:18:22;;;;;;;;;;;;;;;20.00;44.74;95480.97;6125642;19;1154;-86
2022/10/15 08:20:25;;;;;;;;;;;;;;;20.01;44.64;95479.16;6123597;19;1476;-84
2022/10/15 08:22:29;;;;;;;;;;;;;;;20.03;44.23;95485.09;6123191;19;1446;-84
2022/10/15 08:24:35;;;;;;;;;;;;;;;20.02;44.77;95473.59;6130352;19;1427;-84
2022/10/15 08:26:39;;;;;;;;;;;;;;;20.02;44.17;95470.94;6109516;19;1580;-84
2022/10/15 08:28:42;;;;;;;;;;;;;;;20.01;44.41;95468.47;6123482;19;1837;-82
2022/10/15 08:30:45;;;;;;;;;;;;;;;20.00;43.93;95469.47;6123294;19;1393;-83
2022/10/15 08:32:49;;;;;;;;;;;;;;;20.00;43.88;95464.97;6126012;19;1048;-82
2022/10/15 08:34:52;;;;;;;;;;;;;;;20.00;44.28;95461.47;6124449;19;1057;-83
2022/10/15 08:36:55;;;;;;;;;;;;;;;19.99;44.29;95460.66;6114046;19;1481;-82
2022/10/15 08:38:59;;;;;;;;;;;;;;;20.00;43.87;95459.63;6116628;19;1029;-83
2022/10/15 08:41:13;;;;;;;;;;;;;;;20.01;43.84;95463.16;6124822;19;1182;-82
2022/10/15 08:43:21;;;;;;;;;;;;;;;19.99;43.68;95459.84;6124724;19;1084;-82
2022/10/15 08:45:27;;;;;;;;;;;;;;;19.99;43.96;95451.84;6124008;19;1135;-81
2022/10/15 08:47:32;;;;;;;;;;;;;;;20.00;43.56;95456.16;6124347;19;1009;-80
2022/10/15 08:49:43;;;;;;;;;;;;;;;20.00;43.70;95458.81;6103829;19;1844;-87
2022/10/15 08:51:48;;;;;;;;;;;;;;;20.00;44.03;95456.97;6127820;19;1140;-85
2022/10/15 08:53:54;;;;;;;;;;;;;;;20.01;44.13;95458.63;6125058;19;1380;-82
2022/10/15 08:55:59;;;;;;;;;;;;;;;20.02;43.91;95459.44;6123305;19;1231;-80
2022/10/15 08:58:12;;;;;;;;;;;;;;;20.03;44.35;95458.41;6120983;19;1398;-81
2022/10/15 09:00:19;;;;;;;;;;;;;;;20.04;44.26;95460.09;6106630;19;1482;-80
2022/10/15 09:02:25;;;;;;;;;;;;;;;20.06;44.25;95461.53;6124121;19;1112;-86
2022/10/15 09:04:32;;;;;;;;;;;;;;;20.06;44.45;95456.19;6122894;19;1351;-86
2022/10/15 09:06:37;;;;;;;;;;;;;;;20.08;44.43;95458.66;6125629;19;1115;-86
2022/10/15 09:08:46;;;;;;;;;;;;;;;20.07;44.71;95457.84;6121333;19;1453;-87
2022/10/15 09:10:51;;;;;;;;;;;;;;;20.06;44.30;95453.53;6116394;19;1405;-87
2022/10/15 09:12:58;;;;;;;;;;;;;;;20.06;44.37;95456.19;6114771;19;1433;-87
2022/10/15 09:15:05;;;;;;;;;;;;;;;20.06;44.55;95455.34;6125376;19;1177;-86
2022/10/15 09:17:16;;;;;;;;;;;;;;;20.06;44.72;95455.34;6128251;19;1576;-86
2022/10/15 09:19:20;;;;;;;;;;;;;;;20.07;44.41;95457.00;6124691;19;953;-87
2022/10/15 09:21:25;;;;;;;;;;;;;;;20.07;44.78;95462.34;6122688;19;1491;-87
2022/10/15 09:23:40;;;;;;;;;;;;;;;20.01;44.63;95463.97;6104147;19;1436;-86
2022/10/15 09:25:46;;;;;;;;;;;;;;;20.05;44.47;95464.38;6124676;19;1026;-85
2022/10/15 09:27:50;;;;;;;;;;;;;;;20.05;44.96;95457.19;6125406;19;1480;-85
2022/10/15 09:29:59;;;;;;;;;;;;;;;20.03;44.80;95455.75;6124130;19;1840;-87
2022/10/15 09:32:11;;;;;;;;;;;;;;;20.06;44.86;95458.00;6123521;19;1414;-87
2022/10/15 09:34:21;;;;;;;;;;;;;;;20.07;45.13;95454.34;6109314;19;1029;-86
2022/10/15 09:36:34;;;;;;;;;;;;;;;20.05;45.11;95456.38;6124064;19;1611;-86
2022/10/15 09:38:44;;;;;;;;;;;;;;;20.05;44.97;95449.19;6125826;19;1033;-87
2022/10/15 09:40:56;;;;;;;;;;;;;;;20.07;45.12;95451.69;6122341;19;1253;-87
2022/10/15 09:43:01;;;;;;;;;;;;;;;20.05;44.79;95451.03;6124552;19;1033;-87
2022/10/15 09:45:06;;;;;;;;;;;;;;;20.07;44.93;95444.50;6115232;19;1514;-87
2022/10/15 09:47:19;;;;;;;;;;;;;;;20.08;44.85;95439.97;6115235;19;1061;-86
2022/10/15 09:49:26;;;;;;;;;;;;;;;20.07;45.23;95441.81;6123692;19;1844;-86
2022/10/15 09:51:31;;;;;;;;;;;;;;;20.08;45.12;95447.97;6122967;19;1501;-86
2022/10/15 09:53:44;;;;;;;;;;;;;;;20.07;45.33;95441.00;6123211;19;1116;-85
2022/10/15 09:55:50;;;;;;;;;;;;;;;20.06;45.18;95434.00;6122660;19;1333;-87
2022/10/15 09:57:55;;;;;;;;;;;;;;;20.07;45.02;95433.00;6104049;19;1415;-88
2022/10/15 10:00:00;;;;;;;;;;;;;;;20.08;44.88;95431.97;6122605;19;1540;-87
2022/10/15 10:02:04;;;;;;;;;;;;;;;20.09;45.03;95433.63;6122305;19;1506;-86
2022/10/15 10:04:14;;;;;;;;;;;;;;;20.08;45.40;95426.63;6122516;19;1151;-85
2022/10/15 10:06:18;;;;;;;;;;;;;;;20.07;45.18;95428.50;6121502;19;1500;-86
2022/10/15 10:08:23;;;;;;;;;;;;;;;20.08;44.97;95434.66;6106401;19;1382;-87
2022/10/15 10:10:28;;;;;;;;;;;;;;;20.07;45.33;95436.50;6121341;19;1858;-87
2022/10/15 10:12:33;;;;;;;;;;;;;;;20.07;45.20;95439.16;6123489;19;1499;-89
2022/10/15 10:14:38;;;;;;;;;;;;;;;20.08;45.47;95448.81;6122187;19;1473;-87
2022/10/15 10:17:01;;;;;;;;;;;;;;;20.08;45.05;95447.97;6123260;19;1415;-87
2022/10/15 10:19:06;;;;;;;;;;;;;;;20.09;45.39;95444.31;6116131;19;1261;-87
2022/10/15 10:21:23;;;;;;;;;;;;;;;20.09;45.17;95444.31;6111926;19;1380;-86
2022/10/15 10:23:27;;;;;;;;;;;;;;;20.10;45.21;95443.28;6122571;19;1385;-84
2022/10/15 10:25:32;;;;;;;;;;;;;;;20.09;45.64;95438.97;6122418;19;1037;-86
2022/10/15 10:27:35;;;;;;;;;;;;;;;20.10;45.21;95435.28;6121778;19;1372;-85
2022/10/15 10:29:42;;;;;;;;;;;;;;;20.10;45.38;95438.75;6123228;19;1843;-89
2022/10/15 10:31:49;;;;;;;;;;;;;;;20.11;45.62;95434.25;6104813;19;1726;-89
2022/10/15 10:33:52;;;;;;;;;;;;;;;20.12;45.45;95430.56;6126409;19;1018;-90
2022/10/15 10:35:56;;;;;;;;;;;;;;;20.14;45.45;95428.50;6121706;19;1298;-88
2022/10/15 10:38:04;;;;;;;;;;;;;;;20.14;45.12;95420.50;6125152;19;1100;-88
2022/10/15 10:40:21;;;;;;;;;;;;;;;20.12;44.89;95417.22;6125298;19;1052;-90
2022/10/15 10:42:26;;;;;;;;;;;;;;;20.12;44.61;95411.91;6105281;19;1491;-84
2022/10/15 10:44:31;;;;;;;;;;;;;;;20.11;44.53;95420.91;6120648;19;1143;-83
2022/10/15 10:46:34;;;;;;;;;;;;;;;20.12;45.25;95425.25;6121522;19;1081;-87
2022/10/15 10:48:42;;;;;;;;;;;;;;;20.13;45.26;95428.72;6120623;19;1436;-87
2022/10/15 10:50:46;;;;;;;;;;;;;;;20.13;45.39;95429.53;6120498;19;1850;-87
2022/10/15 10:52:50;;;;;;;;;;;;;;;20.14;45.38;95422.34;6121901;19;1424;-88
2022/10/15 10:55:00;;;;;;;;;;;;;;;20.14;45.07;95425.84;6101572;19;1372;-83
2022/10/15 10:57:03;;;;;;;;;;;;;;;20.13;45.46;95418.88;6120304;19;1029;-83
2022/10/15 10:59:13;;;;;;;;;;;;;;;20.14;45.15;95420.50;6119349;19;1571;-85
2022/10/15 11:01:17;;;;;;;;;;;;;;;20.14;45.46;95420.50;6121111;19;1232;-83